Time;durP1;ratioP1;P1;durP2;ratioP2;P2;SDS_P1;SDS_P2;PMS_P1;PMS_P2;Temp;Humidity;BMP_temperature;BMP_pressure;BME280_temperature;BME280_humidity;BME280_pressure;Samples;Min_cycle;Max_cycle;Signal;HPM_P1;HPM_P2
2020/11/27 00:00:30;;;;;;;45.5;13.25;;;;;;;0.5;77.29785;95651.89;;;;
2020/11/27 00:01:30;;;;;;;19.4;11.7;;;;;;;0.46;77.6875;95639.86;;;;
2020/11/27 00:02:31;;;;;;;19.4;11.7;;;;;;;0.46;77.6875;95639.86;;;;
2020/11/27 00:03:31;;;;;;;19.4;11.7;;;;;;;0.46;77.6875;95639.86;;;;
2020/11/27 00:04:32;;;;;;;19.4;11.7;;;;;;;0.46;77.6875;95639.86;;;;
2020/11/27 00:05:32;;;;;;;19.4;11.7;;;;;;;0.46;77.6875;95639.86;;;;
2020/11/27 00:06:33;;;;;;;19.4;11.7;;;;;;;0.46;77.6875;95639.86;;;;
2020/11/27 00:07:34;;;;;;;19.4;11.7;;;;;;;0.46;77.6875;95639.86;;;;
2020/11/27 00:08:35;;;;;;;19.4;11.7;;;;;;;0.46;77.6875;95639.86;;;;
2020/11/27 00:09:35;;;;;;;19.4;11.7;;;;;;;0.46;77.6875;95639.86;;;;
2020/11/27 00:10:36;;;;;;;19.4;11.7;;;;;;;0.46;77.6875;95639.86;;;;
2020/11/27 00:11:37;;;;;;;37.05;12.25;;;;;;;0.43;77.47168;95634.44;;;;
2020/11/27 00:12:37;;;;;;;37.05;12.25;;;;;;;0.43;77.47168;95634.44;;;;
2020/11/27 00:13:38;;;;;;;37.05;12.25;;;;;;;0.43;77.47168;95634.44;;;;
2020/11/27 00:14:38;;;;;;;37.05;12.25;;;;;;;0.43;77.47168;95634.44;;;;
2020/11/27 00:15:38;;;;;;;37.05;12.25;;;;;;;0.43;77.47168;95634.44;;;;
2020/11/27 00:16:39;;;;;;;37.05;12.25;;;;;;;0.43;77.47168;95634.44;;;;
2020/11/27 00:17:40;;;;;;;37.05;12.25;;;;;;;0.43;77.47168;95634.44;;;;
2020/11/27 00:18:40;;;;;;;37.05;12.25;;;;;;;0.43;77.47168;95634.44;;;;
2020/11/27 00:19:41;;;;;;;37.05;12.25;;;;;;;0.43;77.47168;95634.44;;;;
2020/11/27 00:20:41;;;;;;;37.05;12.25;;;;;;;0.43;77.47168;95634.44;;;;
2020/11/27 00:21:42;;;;;;;37.05;12.25;;;;;;;0.43;77.47168;95634.44;;;;
2020/11/27 00:22:43;;;;;;;23.1;10.35;;;;;;;0.32;77.59863;95628.16;;;;
2020/11/27 00:23:43;;;;;;;23.1;10.35;;;;;;;0.32;77.59863;95628.16;;;;
2020/11/27 00:24:43;;;;;;;23.1;10.35;;;;;;;0.32;77.59863;95628.16;;;;
2020/11/27 00:25:44;;;;;;;23.1;10.35;;;;;;;0.32;77.59863;95628.16;;;;
2020/11/27 00:26:45;;;;;;;23.1;10.35;;;;;;;0.32;77.59863;95628.16;;;;
2020/11/27 00:27:45;;;;;;;23.1;10.35;;;;;;;0.32;77.59863;95628.16;;;;
2020/11/27 00:28:46;;;;;;;23.1;10.35;;;;;;;0.32;77.59863;95628.16;;;;
2020/11/27 00:29:47;;;;;;;23.1;10.35;;;;;;;0.32;77.59863;95628.16;;;;
2020/11/27 00:30:47;;;;;;;23.1;10.35;;;;;;;0.32;77.59863;95628.16;;;;
2020/11/27 00:31:48;;;;;;;23.1;10.35;;;;;;;0.32;77.59863;95628.16;;;;
2020/11/27 00:32:48;;;;;;;23.1;10.35;;;;;;;0.32;77.59863;95628.16;;;;
2020/11/27 00:33:49;;;;;;;13.35;9.050001;;;;;;;0.22;78.12207;95629.28;;;;
2020/11/27 00:34:49;;;;;;;13.35;9.050001;;;;;;;0.22;78.12207;95629.28;;;;
2020/11/27 00:35:50;;;;;;;13.35;9.050001;;;;;;;0.22;78.12207;95629.28;;;;
2020/11/27 00:36:50;;;;;;;13.35;9.050001;;;;;;;0.22;78.12207;95629.28;;;;
2020/11/27 00:37:52;;;;;;;13.35;9.050001;;;;;;;0.22;78.12207;95629.28;;;;
2020/11/27 00:38:52;;;;;;;13.35;9.050001;;;;;;;0.22;78.12207;95629.28;;;;
2020/11/27 00:39:53;;;;;;;13.35;9.050001;;;;;;;0.22;78.12207;95629.28;;;;
2020/11/27 00:40:53;;;;;;;13.35;9.050001;;;;;;;0.22;78.12207;95629.28;;;;
2020/11/27 00:41:54;;;;;;;13.35;9.050001;;;;;;;0.22;78.12207;95629.28;;;;
2020/11/27 00:42:55;;;;;;;13.35;9.050001;;;;;;;0.22;78.12207;95629.28;;;;
2020/11/27 00:43:55;;;;;;;49.2;10.3;;;;;;;0.11;77.85156;95636.27;;;;
2020/11/27 00:44:56;;;;;;;49.2;10.3;;;;;;;0.11;77.85156;95636.27;;;;
2020/11/27 00:45:56;;;;;;;49.2;10.3;;;;;;;0.11;77.85156;95636.27;;;;
2020/11/27 00:46:57;;;;;;;49.2;10.3;;;;;;;0.11;77.85156;95636.27;;;;
2020/11/27 00:47:57;;;;;;;49.2;10.3;;;;;;;0.11;77.85156;95636.27;;;;
2020/11/27 00:48:58;;;;;;;49.2;10.3;;;;;;;0.11;77.85156;95636.27;;;;
2020/11/27 00:49:58;;;;;;;49.2;10.3;;;;;;;0.11;77.85156;95636.27;;;;
2020/11/27 00:50:58;;;;;;;49.2;10.3;;;;;;;0.11;77.85156;95636.27;;;;
2020/11/27 00:51:59;;;;;;;49.2;10.3;;;;;;;0.11;77.85156;95636.27;;;;
2020/11/27 00:53:00;;;;;;;49.2;10.3;;;;;;;0.11;77.85156;95636.27;;;;
2020/11/27 00:54:00;;;;;;;49.2;10.3;;;;;;;0.11;77.85156;95636.27;;;;
2020/11/27 00:55:01;;;;;;;47.75;10.55;;;;;;;0;77.95801;95634.75;;;;
2020/11/27 00:56:01;;;;;;;47.75;10.55;;;;;;;0;77.95801;95634.75;;;;
2020/11/27 00:57:02;;;;;;;47.75;10.55;;;;;;;0;77.95801;95634.75;;;;
2020/11/27 00:58:02;;;;;;;47.75;10.55;;;;;;;0;77.95801;95634.75;;;;
2020/11/27 00:59:03;;;;;;;47.75;10.55;;;;;;;0;77.95801;95634.75;;;;
2020/11/27 01:00:04;;;;;;;47.75;10.55;;;;;;;0;77.95801;95634.75;;;;
2020/11/27 01:01:05;;;;;;;47.75;10.55;;;;;;;0;77.95801;95634.75;;;;
2020/11/27 01:02:06;;;;;;;47.75;10.55;;;;;;;0;77.95801;95634.75;;;;
2020/11/27 01:03:06;;;;;;;47.75;10.55;;;;;;;0;77.95801;95634.75;;;;
2020/11/27 01:04:07;;;;;;;47.75;10.55;;;;;;;0;77.95801;95634.75;;;;
2020/11/27 01:05:08;;;;;;;35.3;10.4;;;;;;;-0.08;78.17188;95632.98;;;;
2020/11/27 01:06:09;;;;;;;35.3;10.4;;;;;;;-0.08;78.17188;95632.98;;;;
2020/11/27 01:07:09;;;;;;;35.3;10.4;;;;;;;-0.08;78.17188;95632.98;;;;
2020/11/27 01:08:10;;;;;;;35.3;10.4;;;;;;;-0.08;78.17188;95632.98;;;;
2020/11/27 01:09:10;;;;;;;35.3;10.4;;;;;;;-0.08;78.17188;95632.98;;;;
2020/11/27 01:10:12;;;;;;;35.3;10.4;;;;;;;-0.08;78.17188;95632.98;;;;
2020/11/27 01:11:12;;;;;;;35.3;10.4;;;;;;;-0.08;78.17188;95632.98;;;;
2020/11/27 01:12:13;;;;;;;35.3;10.4;;;;;;;-0.08;78.17188;95632.98;;;;
2020/11/27 01:13:13;;;;;;;35.3;10.4;;;;;;;-0.08;78.17188;95632.98;;;;
2020/11/27 01:14:14;;;;;;;35.3;10.4;;;;;;;-0.08;78.17188;95632.98;;;;
2020/11/27 01:15:14;;;;;;;35.3;10.4;;;;;;;-0.08;78.17188;95632.98;;;;
2020/11/27 01:16:15;;;;;;;18.1;10;;;;;;;-0.14;78.27539;95633.54;;;;
2020/11/27 01:17:15;;;;;;;18.1;10;;;;;;;-0.14;78.27539;95633.54;;;;
2020/11/27 01:18:16;;;;;;;18.1;10;;;;;;;-0.14;78.27539;95633.54;;;;
2020/11/27 01:19:16;;;;;;;18.1;10;;;;;;;-0.14;78.27539;95633.54;;;;
2020/11/27 01:20:17;;;;;;;18.1;10;;;;;;;-0.14;78.27539;95633.54;;;;
2020/11/27 01:21:18;;;;;;;18.1;10;;;;;;;-0.14;78.27539;95633.54;;;;
2020/11/27 01:22:18;;;;;;;18.1;10;;;;;;;-0.14;78.27539;95633.54;;;;
2020/11/27 01:23:19;;;;;;;18.1;10;;;;;;;-0.14;78.27539;95633.54;;;;
2020/11/27 01:24:19;;;;;;;18.1;10;;;;;;;-0.14;78.27539;95633.54;;;;
2020/11/27 01:25:20;;;;;;;18.1;10;;;;;;;-0.14;78.27539;95633.54;;;;
2020/11/27 01:26:20;;;;;;;15.7;10.45;;;;;;;-0.07;78.37305;95619.96;;;;
2020/11/27 01:27:21;;;;;;;15.7;10.45;;;;;;;-0.07;78.37305;95619.96;;;;
2020/11/27 01:28:21;;;;;;;15.7;10.45;;;;;;;-0.07;78.37305;95619.96;;;;
2020/11/27 01:29:22;;;;;;;15.7;10.45;;;;;;;-0.07;78.37305;95619.96;;;;
2020/11/27 01:30:22;;;;;;;15.7;10.45;;;;;;;-0.07;78.37305;95619.96;;;;
2020/11/27 01:31:23;;;;;;;15.7;10.45;;;;;;;-0.07;78.37305;95619.96;;;;
2020/11/27 01:32:23;;;;;;;15.7;10.45;;;;;;;-0.07;78.37305;95619.96;;;;
2020/11/27 01:33:24;;;;;;;15.7;10.45;;;;;;;-0.07;78.37305;95619.96;;;;
2020/11/27 01:34:24;;;;;;;15.7;10.45;;;;;;;-0.07;78.37305;95619.96;;;;
2020/11/27 01:35:25;;;;;;;15.7;10.45;;;;;;;-0.07;78.37305;95619.96;;;;
2020/11/27 01:36:25;;;;;;;15.7;10.45;;;;;;;-0.07;78.37305;95619.96;;;;
2020/11/27 01:37:26;;;;;;;17.05;9.300001;;;;;;;-0.01;78.2168;95608.76;;;;
2020/11/27 01:38:26;;;;;;;17.05;9.300001;;;;;;;-0.01;78.2168;95608.76;;;;
2020/11/27 01:39:27;;;;;;;17.05;9.300001;;;;;;;-0.01;78.2168;95608.76;;;;
2020/11/27 01:40:28;;;;;;;17.05;9.300001;;;;;;;-0.01;78.2168;95608.76;;;;
2020/11/27 01:41:28;;;;;;;17.05;9.300001;;;;;;;-0.01;78.2168;95608.76;;;;
2020/11/27 01:42:29;;;;;;;17.05;9.300001;;;;;;;-0.01;78.2168;95608.76;;;;
2020/11/27 01:43:29;;;;;;;17.05;9.300001;;;;;;;-0.01;78.2168;95608.76;;;;
2020/11/27 01:44:30;;;;;;;17.05;9.300001;;;;;;;-0.01;78.2168;95608.76;;;;
2020/11/27 01:45:30;;;;;;;17.05;9.300001;;;;;;;-0.01;78.2168;95608.76;;;;
2020/11/27 01:46:31;;;;;;;17.05;9.300001;;;;;;;-0.01;78.2168;95608.76;;;;
2020/11/27 01:47:33;;;;;;;17.05;9.300001;;;;;;;-0.01;78.2168;95608.76;;;;
2020/11/27 01:48:46;;;;;;;15.2;9.6;;;;;;;-0.04;78.21191;95615.25;;;;
2020/11/27 01:49:46;;;;;;;15.2;9.6;;;;;;;-0.04;78.21191;95615.25;;;;
2020/11/27 01:50:47;;;;;;;15.2;9.6;;;;;;;-0.04;78.21191;95615.25;;;;
2020/11/27 01:51:47;;;;;;;15.2;9.6;;;;;;;-0.04;78.21191;95615.25;;;;
2020/11/27 01:52:48;;;;;;;15.2;9.6;;;;;;;-0.04;78.21191;95615.25;;;;
2020/11/27 01:53:50;;;;;;;15.2;9.6;;;;;;;-0.04;78.21191;95615.25;;;;
2020/11/27 01:54:50;;;;;;;15.2;9.6;;;;;;;-0.04;78.21191;95615.25;;;;
2020/11/27 01:55:51;;;;;;;15.2;9.6;;;;;;;-0.04;78.21191;95615.25;;;;
2020/11/27 01:56:51;;;;;;;15.2;9.6;;;;;;;-0.04;78.21191;95615.25;;;;
2020/11/27 01:57:52;;;;;;;15.2;9.6;;;;;;;-0.04;78.21191;95615.25;;;;
2020/11/27 01:58:52;;;;;;;16.05;9.349998;;;;;;;-0.11;78.15625;95621.79;;;;
2020/11/27 01:59:54;;;;;;;16.05;9.349998;;;;;;;-0.11;78.15625;95621.79;;;;
2020/11/27 02:00:55;;;;;;;16.05;9.349998;;;;;;;-0.11;78.15625;95621.79;;;;
2020/11/27 02:01:55;;;;;;;16.05;9.349998;;;;;;;-0.11;78.15625;95621.79;;;;
2020/11/27 02:02:56;;;;;;;16.05;9.349998;;;;;;;-0.11;78.15625;95621.79;;;;
2020/11/27 02:03:56;;;;;;;16.05;9.349998;;;;;;;-0.11;78.15625;95621.79;;;;
2020/11/27 02:04:57;;;;;;;16.05;9.349998;;;;;;;-0.11;78.15625;95621.79;;;;
2020/11/27 02:05:57;;;;;;;16.05;9.349998;;;;;;;-0.11;78.15625;95621.79;;;;
2020/11/27 02:06:58;;;;;;;16.05;9.349998;;;;;;;-0.11;78.15625;95621.79;;;;
2020/11/27 02:08:00;;;;;;;16.05;9.349998;;;;;;;-0.11;78.15625;95621.79;;;;
2020/11/27 02:09:01;;;;;;;21.45;8.900001;;;;;;;-0.27;78.18066;95615.92;;;;
2020/11/27 02:10:04;;;;;;;21.45;8.900001;;;;;;;-0.27;78.18066;95615.92;;;;
2020/11/27 02:11:06;;;;;;;21.45;8.900001;;;;;;;-0.27;78.18066;95615.92;;;;
2020/11/27 02:12:07;;;;;;;21.45;8.900001;;;;;;;-0.27;78.18066;95615.92;;;;
2020/11/27 02:13:08;;;;;;;21.45;8.900001;;;;;;;-0.27;78.18066;95615.92;;;;
2020/11/27 02:14:08;;;;;;;21.45;8.900001;;;;;;;-0.27;78.18066;95615.92;;;;
2020/11/27 02:15:09;;;;;;;21.45;8.900001;;;;;;;-0.27;78.18066;95615.92;;;;
2020/11/27 02:16:09;;;;;;;21.45;8.900001;;;;;;;-0.27;78.18066;95615.92;;;;
2020/11/27 02:17:10;;;;;;;21.45;8.900001;;;;;;;-0.27;78.18066;95615.92;;;;
2020/11/27 02:18:10;;;;;;;21.45;8.900001;;;;;;;-0.27;78.18066;95615.92;;;;
2020/11/27 02:19:11;;;;;;;21.45;8.900001;;;;;;;-0.27;78.18066;95615.92;;;;
2020/11/27 02:20:11;;;;;;;34.85001;9.250001;;;;;;;-0.37;78.45313;95621.88;;;;
2020/11/27 02:21:12;;;;;;;34.85001;9.250001;;;;;;;-0.37;78.45313;95621.88;;;;
2020/11/27 02:22:12;;;;;;;34.85001;9.250001;;;;;;;-0.37;78.45313;95621.88;;;;
2020/11/27 02:23:20;;;;;;;34.85001;9.250001;;;;;;;-0.37;78.45313;95621.88;;;;
2020/11/27 02:24:21;;;;;;;34.85001;9.250001;;;;;;;-0.37;78.45313;95621.88;;;;
2020/11/27 02:25:22;;;;;;;34.85001;9.250001;;;;;;;-0.37;78.45313;95621.88;;;;
2020/11/27 02:26:22;;;;;;;34.85001;9.250001;;;;;;;-0.37;78.45313;95621.88;;;;
2020/11/27 02:27:23;;;;;;;34.85001;9.250001;;;;;;;-0.37;78.45313;95621.88;;;;
2020/11/27 02:28:24;;;;;;;34.85001;9.250001;;;;;;;-0.37;78.45313;95621.88;;;;
2020/11/27 02:29:24;;;;;;;34.85001;9.250001;;;;;;;-0.37;78.45313;95621.88;;;;
2020/11/27 02:30:25;;;;;;;61.05;11.15;;;;;;;-0.45;78.61426;95613.47;;;;
2020/11/27 02:31:25;;;;;;;61.05;11.15;;;;;;;-0.45;78.61426;95613.47;;;;
2020/11/27 02:32:26;;;;;;;61.05;11.15;;;;;;;-0.45;78.61426;95613.47;;;;
2020/11/27 02:33:26;;;;;;;61.05;11.15;;;;;;;-0.45;78.61426;95613.47;;;;
2020/11/27 02:34:27;;;;;;;61.05;11.15;;;;;;;-0.45;78.61426;95613.47;;;;
2020/11/27 02:35:27;;;;;;;61.05;11.15;;;;;;;-0.45;78.61426;95613.47;;;;
2020/11/27 02:36:28;;;;;;;61.05;11.15;;;;;;;-0.45;78.61426;95613.47;;;;
2020/11/27 02:37:31;;;;;;;61.05;11.15;;;;;;;-0.45;78.61426;95613.47;;;;
2020/11/27 02:38:32;;;;;;;61.05;11.15;;;;;;;-0.45;78.61426;95613.47;;;;
2020/11/27 02:39:32;;;;;;;61.05;11.15;;;;;;;-0.45;78.61426;95613.47;;;;
2020/11/27 02:40:33;;;;;;;61.05;11.15;;;;;;;-0.45;78.61426;95613.47;;;;
2020/11/27 02:41:35;;;;;;;15.65;10.05;;;;;;;-0.48;78.66113;95613.37;;;;
2020/11/27 02:42:35;;;;;;;15.65;10.05;;;;;;;-0.48;78.66113;95613.37;;;;
2020/11/27 02:43:36;;;;;;;15.65;10.05;;;;;;;-0.48;78.66113;95613.37;;;;
2020/11/27 02:44:37;;;;;;;15.65;10.05;;;;;;;-0.48;78.66113;95613.37;;;;
2020/11/27 02:45:37;;;;;;;15.65;10.05;;;;;;;-0.48;78.66113;95613.37;;;;
2020/11/27 02:46:38;;;;;;;15.65;10.05;;;;;;;-0.48;78.66113;95613.37;;;;
2020/11/27 02:47:39;;;;;;;15.65;10.05;;;;;;;-0.48;78.66113;95613.37;;;;
2020/11/27 02:48:39;;;;;;;15.65;10.05;;;;;;;-0.48;78.66113;95613.37;;;;
2020/11/27 02:49:40;;;;;;;15.65;10.05;;;;;;;-0.48;78.66113;95613.37;;;;
2020/11/27 02:50:40;;;;;;;15.65;10.05;;;;;;;-0.48;78.66113;95613.37;;;;
2020/11/27 02:51:41;;;;;;;29;10.8;;;;;;;-0.46;78.9248;95616.28;;;;
2020/11/27 02:52:41;;;;;;;29;10.8;;;;;;;-0.46;78.9248;95616.28;;;;
2020/11/27 02:53:42;;;;;;;29;10.8;;;;;;;-0.46;78.9248;95616.28;;;;
2020/11/27 02:54:42;;;;;;;29;10.8;;;;;;;-0.46;78.9248;95616.28;;;;
2020/11/27 02:55:43;;;;;;;29;10.8;;;;;;;-0.46;78.9248;95616.28;;;;
2020/11/27 02:56:43;;;;;;;29;10.8;;;;;;;-0.46;78.9248;95616.28;;;;
2020/11/27 02:57:45;;;;;;;29;10.8;;;;;;;-0.46;78.9248;95616.28;;;;
2020/11/27 02:58:45;;;;;;;29;10.8;;;;;;;-0.46;78.9248;95616.28;;;;
2020/11/27 02:59:46;;;;;;;29;10.8;;;;;;;-0.46;78.9248;95616.28;;;;
2020/11/27 03:00:46;;;;;;;29;10.8;;;;;;;-0.46;78.9248;95616.28;;;;
2020/11/27 03:01:47;;;;;;;29;10.8;;;;;;;-0.46;78.9248;95616.28;;;;
2020/11/27 03:02:47;;;;;;;24.8;10.45;;;;;;;-0.4;78.73828;95618.3;;;;
2020/11/27 03:03:48;;;;;;;24.8;10.45;;;;;;;-0.4;78.73828;95618.3;;;;
2020/11/27 03:04:48;;;;;;;24.8;10.45;;;;;;;-0.4;78.73828;95618.3;;;;
2020/11/27 03:05:49;;;;;;;24.8;10.45;;;;;;;-0.4;78.73828;95618.3;;;;
2020/11/27 03:06:49;;;;;;;24.8;10.45;;;;;;;-0.4;78.73828;95618.3;;;;
2020/11/27 03:07:50;;;;;;;24.8;10.45;;;;;;;-0.4;78.73828;95618.3;;;;
2020/11/27 03:08:50;;;;;;;24.8;10.45;;;;;;;-0.4;78.73828;95618.3;;;;
2020/11/27 03:09:51;;;;;;;24.8;10.45;;;;;;;-0.4;78.73828;95618.3;;;;
2020/11/27 03:10:51;;;;;;;24.8;10.45;;;;;;;-0.4;78.73828;95618.3;;;;
2020/11/27 03:11:52;;;;;;;24.8;10.45;;;;;;;-0.4;78.73828;95618.3;;;;
2020/11/27 03:12:52;;;;;;;24.8;10.45;;;;;;;-0.4;78.73828;95618.3;;;;
2020/11/27 03:13:53;;;;;;;30.8;10.55;;;;;;;-0.43;78.63867;95622.52;;;;
2020/11/27 03:14:53;;;;;;;30.8;10.55;;;;;;;-0.43;78.63867;95622.52;;;;
2020/11/27 03:15:54;;;;;;;30.8;10.55;;;;;;;-0.43;78.63867;95622.52;;;;
2020/11/27 03:16:54;;;;;;;30.8;10.55;;;;;;;-0.43;78.63867;95622.52;;;;
2020/11/27 03:17:55;;;;;;;30.8;10.55;;;;;;;-0.43;78.63867;95622.52;;;;
2020/11/27 03:18:55;;;;;;;30.8;10.55;;;;;;;-0.43;78.63867;95622.52;;;;
2020/11/27 03:19:56;;;;;;;30.8;10.55;;;;;;;-0.43;78.63867;95622.52;;;;
2020/11/27 03:20:57;;;;;;;30.8;10.55;;;;;;;-0.43;78.63867;95622.52;;;;
2020/11/27 03:21:57;;;;;;;30.8;10.55;;;;;;;-0.43;78.63867;95622.52;;;;
2020/11/27 03:22:58;;;;;;;30.8;10.55;;;;;;;-0.43;78.63867;95622.52;;;;
2020/11/27 03:23:59;;;;;;;17.4;9.950001;;;;;;;-0.4;78.73828;95627.58;;;;
2020/11/27 03:24:59;;;;;;;17.4;9.950001;;;;;;;-0.4;78.73828;95627.58;;;;
2020/11/27 03:25:59;;;;;;;17.4;9.950001;;;;;;;-0.4;78.73828;95627.58;;;;
2020/11/27 03:27:00;;;;;;;17.4;9.950001;;;;;;;-0.4;78.73828;95627.58;;;;
2020/11/27 03:28:00;;;;;;;17.4;9.950001;;;;;;;-0.4;78.73828;95627.58;;;;
2020/11/27 03:29:02;;;;;;;17.4;9.950001;;;;;;;-0.4;78.73828;95627.58;;;;
2020/11/27 03:30:02;;;;;;;17.4;9.950001;;;;;;;-0.4;78.73828;95627.58;;;;
2020/11/27 03:31:03;;;;;;;17.4;9.950001;;;;;;;-0.4;78.73828;95627.58;;;;
2020/11/27 03:32:04;;;;;;;17.4;9.950001;;;;;;;-0.4;78.73828;95627.58;;;;
2020/11/27 03:33:05;;;;;;;17.4;9.950001;;;;;;;-0.4;78.73828;95627.58;;;;
2020/11/27 03:34:05;;;;;;;17.4;9.950001;;;;;;;-0.4;78.73828;95627.58;;;;
2020/11/27 03:35:06;;;;;;;18.9;10.15;;;;;;;-0.36;78.83887;95630.67;;;;
2020/11/27 03:36:06;;;;;;;18.9;10.15;;;;;;;-0.36;78.83887;95630.67;;;;
2020/11/27 03:37:07;;;;;;;18.9;10.15;;;;;;;-0.36;78.83887;95630.67;;;;
2020/11/27 03:38:08;;;;;;;18.9;10.15;;;;;;;-0.36;78.83887;95630.67;;;;
2020/11/27 03:39:08;;;;;;;18.9;10.15;;;;;;;-0.36;78.83887;95630.67;;;;
2020/11/27 03:40:09;;;;;;;18.9;10.15;;;;;;;-0.36;78.83887;95630.67;;;;
2020/11/27 03:41:09;;;;;;;18.9;10.15;;;;;;;-0.36;78.83887;95630.67;;;;
2020/11/27 03:42:10;;;;;;;18.9;10.15;;;;;;;-0.36;78.83887;95630.67;;;;
2020/11/27 03:43:10;;;;;;;18.9;10.15;;;;;;;-0.36;78.83887;95630.67;;;;
2020/11/27 03:44:11;;;;;;;18.9;10.15;;;;;;;-0.36;78.83887;95630.67;;;;
2020/11/27 03:45:11;;;;;;;17.85;10.65;;;;;;;-0.32;78.79492;95633.31;;;;
2020/11/27 03:46:12;;;;;;;17.85;10.65;;;;;;;-0.32;78.79492;95633.31;;;;
2020/11/27 03:47:12;;;;;;;17.85;10.65;;;;;;;-0.32;78.79492;95633.31;;;;
2020/11/27 03:48:13;;;;;;;17.85;10.65;;;;;;;-0.32;78.79492;95633.31;;;;
2020/11/27 03:49:13;;;;;;;17.85;10.65;;;;;;;-0.32;78.79492;95633.31;;;;
2020/11/27 03:50:14;;;;;;;17.85;10.65;;;;;;;-0.32;78.79492;95633.31;;;;
2020/11/27 03:51:15;;;;;;;17.85;10.65;;;;;;;-0.32;78.79492;95633.31;;;;
2020/11/27 03:52:15;;;;;;;17.85;10.65;;;;;;;-0.32;78.79492;95633.31;;;;
2020/11/27 03:53:16;;;;;;;17.85;10.65;;;;;;;-0.32;78.79492;95633.31;;;;
2020/11/27 03:54:16;;;;;;;17.85;10.65;;;;;;;-0.32;78.79492;95633.31;;;;
2020/11/27 03:55:17;;;;;;;17.85;10.65;;;;;;;-0.32;78.79492;95633.31;;;;
2020/11/27 03:56:17;;;;;;;75.85001;12.9;;;;;;;-0.35;78.91504;95626.11;;;;
2020/11/27 03:57:18;;;;;;;75.85001;12.9;;;;;;;-0.35;78.91504;95626.11;;;;
2020/11/27 03:58:18;;;;;;;75.85001;12.9;;;;;;;-0.35;78.91504;95626.11;;;;
2020/11/27 03:59:19;;;;;;;75.85001;12.9;;;;;;;-0.35;78.91504;95626.11;;;;
2020/11/27 04:00:20;;;;;;;75.85001;12.9;;;;;;;-0.35;78.91504;95626.11;;;;
2020/11/27 04:01:20;;;;;;;75.85001;12.9;;;;;;;-0.35;78.91504;95626.11;;;;
2020/11/27 04:02:21;;;;;;;75.85001;12.9;;;;;;;-0.35;78.91504;95626.11;;;;
2020/11/27 04:03:21;;;;;;;75.85001;12.9;;;;;;;-0.35;78.91504;95626.11;;;;
2020/11/27 04:04:22;;;;;;;75.85001;12.9;;;;;;;-0.35;78.91504;95626.11;;;;
2020/11/27 04:05:22;;;;;;;75.85001;12.9;;;;;;;-0.35;78.91504;95626.11;;;;
2020/11/27 04:06:23;;;;;;;67.99999;11.8;;;;;;;-0.37;79.30762;95609.11;;;;
2020/11/27 04:07:23;;;;;;;67.99999;11.8;;;;;;;-0.37;79.30762;95609.11;;;;
2020/11/27 04:08:24;;;;;;;67.99999;11.8;;;;;;;-0.37;79.30762;95609.11;;;;
2020/11/27 04:09:24;;;;;;;67.99999;11.8;;;;;;;-0.37;79.30762;95609.11;;;;
2020/11/27 04:10:24;;;;;;;67.99999;11.8;;;;;;;-0.37;79.30762;95609.11;;;;
2020/11/27 04:11:25;;;;;;;67.99999;11.8;;;;;;;-0.37;79.30762;95609.11;;;;
2020/11/27 04:12:25;;;;;;;67.99999;11.8;;;;;;;-0.37;79.30762;95609.11;;;;
2020/11/27 04:13:26;;;;;;;67.99999;11.8;;;;;;;-0.37;79.30762;95609.11;;;;
2020/11/27 04:14:26;;;;;;;67.99999;11.8;;;;;;;-0.37;79.30762;95609.11;;;;
2020/11/27 04:15:27;;;;;;;67.99999;11.8;;;;;;;-0.37;79.30762;95609.11;;;;
2020/11/27 04:16:27;;;;;;;67.99999;11.8;;;;;;;-0.37;79.30762;95609.11;;;;
2020/11/27 04:17:30;;;;;;;19.75;11.95;;;;;;;-0.31;79.48438;95615.52;;;;
2020/11/27 04:18:30;;;;;;;19.75;11.95;;;;;;;-0.31;79.48438;95615.52;;;;
2020/11/27 04:19:31;;;;;;;19.75;11.95;;;;;;;-0.31;79.48438;95615.52;;;;
2020/11/27 04:20:32;;;;;;;19.75;11.95;;;;;;;-0.31;79.48438;95615.52;;;;
2020/11/27 04:21:33;;;;;;;19.75;11.95;;;;;;;-0.31;79.48438;95615.52;;;;
2020/11/27 04:22:36;;;;;;;19.75;11.95;;;;;;;-0.31;79.48438;95615.52;;;;
2020/11/27 04:23:37;;;;;;;19.75;11.95;;;;;;;-0.31;79.48438;95615.52;;;;
2020/11/27 04:24:37;;;;;;;19.75;11.95;;;;;;;-0.31;79.48438;95615.52;;;;
2020/11/27 04:25:38;;;;;;;19.75;11.95;;;;;;;-0.31;79.48438;95615.52;;;;
2020/11/27 04:26:38;;;;;;;19.75;11.95;;;;;;;-0.31;79.48438;95615.52;;;;
2020/11/27 04:27:39;;;;;;;19.75;11.95;;;;;;;-0.31;79.48438;95615.52;;;;
2020/11/27 04:28:39;;;;;;;21.1;11.75;;;;;;;-0.24;79.28809;95601.53;;;;
2020/11/27 04:29:40;;;;;;;21.1;11.75;;;;;;;-0.24;79.28809;95601.53;;;;
2020/11/27 04:30:40;;;;;;;21.1;11.75;;;;;;;-0.24;79.28809;95601.53;;;;
2020/11/27 04:31:41;;;;;;;21.1;11.75;;;;;;;-0.24;79.28809;95601.53;;;;
2020/11/27 04:32:41;;;;;;;21.1;11.75;;;;;;;-0.24;79.28809;95601.53;;;;
2020/11/27 04:33:42;;;;;;;21.1;11.75;;;;;;;-0.24;79.28809;95601.53;;;;
2020/11/27 04:34:42;;;;;;;21.1;11.75;;;;;;;-0.24;79.28809;95601.53;;;;
2020/11/27 04:35:42;;;;;;;21.1;11.75;;;;;;;-0.24;79.28809;95601.53;;;;
2020/11/27 04:36:43;;;;;;;21.1;11.75;;;;;;;-0.24;79.28809;95601.53;;;;
2020/11/27 04:37:48;;;;;;;21.1;11.75;;;;;;;-0.24;79.28809;95601.53;;;;
2020/11/27 04:38:49;;;;;;;42.05;11.65;;;;;;;-0.27;79.5;95590.83;;;;
2020/11/27 04:39:50;;;;;;;42.05;11.65;;;;;;;-0.27;79.5;95590.83;;;;
2020/11/27 04:40:51;;;;;;;42.05;11.65;;;;;;;-0.27;79.5;95590.83;;;;
2020/11/27 04:41:55;;;;;;;42.05;11.65;;;;;;;-0.27;79.5;95590.83;;;;
2020/11/27 04:42:56;;;;;;;42.05;11.65;;;;;;;-0.27;79.5;95590.83;;;;
2020/11/27 04:43:57;;;;;;;42.05;11.65;;;;;;;-0.27;79.5;95590.83;;;;
2020/11/27 04:44:58;;;;;;;42.05;11.65;;;;;;;-0.27;79.5;95590.83;;;;
2020/11/27 04:45:58;;;;;;;42.05;11.65;;;;;;;-0.27;79.5;95590.83;;;;
2020/11/27 04:46:59;;;;;;;42.05;11.65;;;;;;;-0.27;79.5;95590.83;;;;
2020/11/27 04:48:01;;;;;;;42.05;11.65;;;;;;;-0.27;79.5;95590.83;;;;
2020/11/27 04:49:02;;;;;;;25.1;11.15;;;;;;;-0.35;79.88379;95591.22;;;;
2020/11/27 04:50:03;;;;;;;25.1;11.15;;;;;;;-0.35;79.88379;95591.22;;;;
2020/11/27 04:51:03;;;;;;;25.1;11.15;;;;;;;-0.35;79.88379;95591.22;;;;
2020/11/27 04:52:07;;;;;;;25.1;11.15;;;;;;;-0.35;79.88379;95591.22;;;;
2020/11/27 04:53:11;;;;;;;25.1;11.15;;;;;;;-0.35;79.88379;95591.22;;;;
2020/11/27 04:54:12;;;;;;;25.1;11.15;;;;;;;-0.35;79.88379;95591.22;;;;
2020/11/27 04:55:14;;;;;;;25.1;11.15;;;;;;;-0.35;79.88379;95591.22;;;;
2020/11/27 04:56:17;;;;;;;25.1;11.15;;;;;;;-0.35;79.88379;95591.22;;;;
2020/11/27 04:57:18;;;;;;;25.1;11.15;;;;;;;-0.35;79.88379;95591.22;;;;
2020/11/27 04:58:19;;;;;;;25.1;11.15;;;;;;;-0.35;79.88379;95591.22;;;;
2020/11/27 04:59:25;;;;;;;25.1;11.15;;;;;;;-0.35;79.88379;95591.22;;;;
2020/11/27 05:00:25;;;;;;;38.1;11.2;;;;;;;-0.4;80.07227;95595.68;;;;
2020/11/27 05:01:26;;;;;;;38.1;11.2;;;;;;;-0.4;80.07227;95595.68;;;;
2020/11/27 05:02:26;;;;;;;38.1;11.2;;;;;;;-0.4;80.07227;95595.68;;;;
2020/11/27 05:03:34;;;;;;;38.1;11.2;;;;;;;-0.4;80.07227;95595.68;;;;
2020/11/27 05:04:34;;;;;;;38.1;11.2;;;;;;;-0.4;80.07227;95595.68;;;;
2020/11/27 05:05:35;;;;;;;38.1;11.2;;;;;;;-0.4;80.07227;95595.68;;;;
2020/11/27 05:06:43;;;;;;;38.1;11.2;;;;;;;-0.4;80.07227;95595.68;;;;
2020/11/27 05:07:44;;;;;;;38.1;11.2;;;;;;;-0.4;80.07227;95595.68;;;;
2020/11/27 05:08:45;;;;;;;38.1;11.2;;;;;;;-0.4;80.07227;95595.68;;;;
2020/11/27 05:09:45;;;;;;;38.1;11.2;;;;;;;-0.4;80.07227;95595.68;;;;
2020/11/27 05:10:46;;;;;;;16.35;9.8;;;;;;;-0.46;80.06055;95600.79;;;;
2020/11/27 05:11:49;;;;;;;16.35;9.8;;;;;;;-0.46;80.06055;95600.79;;;;
2020/11/27 05:12:50;;;;;;;16.35;9.8;;;;;;;-0.46;80.06055;95600.79;;;;
2020/11/27 05:13:50;;;;;;;16.35;9.8;;;;;;;-0.46;80.06055;95600.79;;;;
2020/11/27 05:14:51;;;;;;;16.35;9.8;;;;;;;-0.46;80.06055;95600.79;;;;
2020/11/27 05:15:51;;;;;;;16.35;9.8;;;;;;;-0.46;80.06055;95600.79;;;;
2020/11/27 05:16:56;;;;;;;16.35;9.8;;;;;;;-0.46;80.06055;95600.79;;;;
2020/11/27 05:17:58;;;;;;;16.35;9.8;;;;;;;-0.46;80.06055;95600.79;;;;
2020/11/27 05:18:58;;;;;;;16.35;9.8;;;;;;;-0.46;80.06055;95600.79;;;;
2020/11/27 05:19:59;;;;;;;16.35;9.8;;;;;;;-0.46;80.06055;95600.79;;;;
2020/11/27 05:21:03;;;;;;;16.35;9.6;;;;;;;-0.44;80.2002;95596.58;;;;
2020/11/27 05:22:20;;;;;;;16.35;9.6;;;;;;;-0.44;80.2002;95596.58;;;;
2020/11/27 05:23:21;;;;;;;16.35;9.6;;;;;;;-0.44;80.2002;95596.58;;;;
2020/11/27 05:24:22;;;;;;;16.35;9.6;;;;;;;-0.44;80.2002;95596.58;;;;
2020/11/27 05:25:31;;;;;;;16.35;9.6;;;;;;;-0.44;80.2002;95596.58;;;;
2020/11/27 05:26:32;;;;;;;16.35;9.6;;;;;;;-0.44;80.2002;95596.58;;;;
2020/11/27 05:27:32;;;;;;;16.35;9.6;;;;;;;-0.44;80.2002;95596.58;;;;
2020/11/27 05:28:33;;;;;;;16.35;9.6;;;;;;;-0.44;80.2002;95596.58;;;;
2020/11/27 05:29:33;;;;;;;16.35;9.6;;;;;;;-0.44;80.2002;95596.58;;;;
2020/11/27 05:30:34;;;;;;;16.35;9.6;;;;;;;-0.44;80.2002;95596.58;;;;
2020/11/27 05:31:34;;;;;;;16.35;9.6;;;;;;;-0.44;80.2002;95596.58;;;;
2020/11/27 05:32:35;;;;;;;13.4;8.950001;;;;;;;-0.44;80.2002;95607.19;;;;
2020/11/27 05:33:35;;;;;;;13.4;8.950001;;;;;;;-0.44;80.2002;95607.19;;;;
2020/11/27 05:34:36;;;;;;;13.4;8.950001;;;;;;;-0.44;80.2002;95607.19;;;;
2020/11/27 05:35:50;;;;;;;13.4;8.950001;;;;;;;-0.44;80.2002;95607.19;;;;
2020/11/27 05:37:00;;;;;;;13.4;8.950001;;;;;;;-0.44;80.2002;95607.19;;;;
2020/11/27 05:38:03;;;;;;;13.4;8.950001;;;;;;;-0.44;80.2002;95607.19;;;;
2020/11/27 05:39:23;;;;;;;13.4;8.950001;;;;;;;-0.44;80.2002;95607.19;;;;